Time;durP1;ratioP1;P1;durP2;ratioP2;P2;SDS_P1;SDS_P2;PMS_P1;PMS_P2;Temp;Humidity;BMP_temperature;BMP_pressure;BME280_temperature;BME280_humidity;BME280_pressure;Samples;Min_cycle;Max_cycle;Signal;HPM_P1;HPM_P2
2022/05/15 00:02:02;;;;;;;6.18;2.63;;;19.30;52.70;;;;;;5109210;27;20043;-74
2022/05/15 00:04:29;;;;;;;5.65;2.78;;;19.10;57.40;;;;;;5116945;27;20056;-73
2022/05/15 00:06:57;;;;;;;5.55;3.00;;;19.90;56.50;;;;;;5090905;28;20058;-75
2022/05/15 00:09:24;;;;;;;8.48;3.40;;;19.30;56.20;;;;;;5090532;28;20056;-74
2022/05/15 00:11:50;;;;;;;6.22;3.15;;;19.40;56.80;;;;;;5090500;28;20052;-74
2022/05/15 00:14:17;;;;;;;5.95;2.90;;;19.40;56.50;;;;;;5090967;28;20054;-74
2022/05/15 00:16:44;;;;;;;5.20;2.90;;;19.30;52.10;;;;;;5090529;28;20131;-74
2022/05/15 00:19:11;;;;;;;6.35;3.13;;;19.50;56.80;;;;;;5073716;28;20143;-73
2022/05/15 00:21:38;;;;;;;8.13;3.30;;;19.20;52.10;;;;;;5070364;28;20558;-73
2022/05/15 00:24:06;;;;;;;6.10;3.00;;;19.30;56.60;;;;;;5070362;28;20165;-74
2022/05/15 00:26:33;;;;;;;8.38;3.20;;;19.30;56.10;;;;;;5070293;28;20144;-74
2022/05/15 00:29:00;;;;;;;5.43;3.10;;;19.10;56.40;;;;;;5070422;28;20060;-73
2022/05/15 00:31:26;;;;;;;6.85;3.10;;;19.20;57.00;;;;;;5070207;28;20397;-74
2022/05/15 00:33:53;;;;;;;5.97;2.55;;;19.30;56.70;;;;;;5074674;28;20048;-74
2022/05/15 00:36:20;;;;;;;5.53;2.67;;;19.10;52.10;;;;;;5090729;28;20469;-73
2022/05/15 00:38:46;;;;;;;5.72;2.80;;;19.00;56.30;;;;;;5091379;28;20388;-74
2022/05/15 00:41:15;;;;;;;6.32;3.00;;;19.00;56.40;;;;;;5090025;28;20060;-74
2022/05/15 00:43:44;;;;;;;7.03;3.20;;;18.90;56.30;;;;;;5090530;28;20048;-74
2022/05/15 00:46:13;;;;;;;5.90;3.10;;;19.10;52.10;;;;;;5090580;28;20055;-74
2022/05/15 00:48:40;;;;;;;5.72;2.67;;;18.60;56.90;;;;;;5090135;28;20495;-73
2022/05/15 00:51:10;;;;;;;5.40;2.97;;;19.10;56.40;;;;;;5078400;28;20056;-75
2022/05/15 00:53:36;;;;;;;8.25;3.13;;;18.20;56.20;;;;;;5069830;28;20055;-73
2022/05/15 00:56:03;;;;;;;6.85;3.15;;;19.00;57.70;;;;;;5070208;28;20066;-74
2022/05/15 00:58:33;;;;;;;5.60;3.10;;;19.00;57.30;;;;;;5070194;28;20063;-74
2022/05/15 01:01:00;;;;;;;5.88;2.90;;;18.80;56.80;;;;;;5103880;28;20063;-74
2022/05/15 01:03:26;;;;;;;5.40;2.78;;;18.10;56.60;;;;;;5070047;28;20078;-73
2022/05/15 01:05:54;;;;;;;7.70;3.25;;;19.20;56.60;;;;;;5070165;28;20131;-74
2022/05/15 01:08:21;;;;;;;5.28;2.50;;;19.00;56.20;;;;;;5088912;28;20115;-74
2022/05/15 01:10:49;;;;;;;4.97;2.97;;;19.10;56.60;;;;;;5090019;28;20416;-74
2022/05/15 01:13:16;;;;;;;5.35;2.67;;;19.20;56.40;;;;;;5090070;28;20058;-74
2022/05/15 01:15:45;;;;;;;6.15;2.83;;;18.50;57.10;;;;;;5090412;28;20058;-73
2022/05/15 01:18:11;;;;;;;5.00;3.10;;;19.00;56.40;;;;;;5090285;28;20052;-73
2022/05/15 01:20:39;;;;;;;5.35;3.03;;;19.00;56.50;;;;;;5091564;28;20493;-73
2022/05/15 01:23:07;;;;;;;6.30;3.00;;;19.00;57.20;;;;;;5094904;28;20044;-73
2022/05/15 01:25:35;;;;;;;5.75;2.83;;;19.20;56.90;;;;;;5128119;27;20058;-73
2022/05/15 01:28:03;;;;;;;7.45;2.88;;;18.90;52.10;;;;;;5093605;28;20047;-73
2022/05/15 01:30:30;;;;;;;6.47;3.00;;;18.90;52.10;;;;;;5093800;28;20060;-73
2022/05/15 01:32:57;;;;;;;7.32;3.00;;;19.00;57.30;;;;;;5093671;28;20060;-73
2022/05/15 01:35:24;;;;;;;7.78;3.00;;;18.90;52.10;;;;;;5077124;28;20064;-73
2022/05/15 01:37:50;;;;;;;7.20;3.33;;;17.80;55.70;;;;;;5073446;28;20053;-73
2022/05/15 01:40:19;;;;;;;5.95;3.20;;;18.90;52.10;;;;;;5072896;28;20519;-73
2022/05/15 01:42:46;;;;;;;6.25;2.95;;;18.90;52.10;;;;;;5109150;28;20156;-73
2022/05/15 01:45:13;;;;;;;5.55;2.95;;;18.80;56.80;;;;;;5093497;28;20062;-73
2022/05/15 01:47:40;;;;;;;7.22;3.05;;;19.20;56.40;;;;;;5093363;28;20058;-73
2022/05/15 01:50:08;;;;;;;6.47;3.05;;;19.60;56.60;;;;;;5093175;28;20066;-73
2022/05/15 01:52:34;;;;;;;5.88;3.03;;;18.50;56.30;;;;;;5093500;28;20052;-73
2022/05/15 01:55:01;;;;;;;5.82;3.10;;;17.90;55.70;;;;;;5093317;28;20062;-73
2022/05/15 01:57:29;;;;;;;6.75;2.90;;;18.50;56.50;;;;;;5093363;28;20056;-73
2022/05/15 01:59:56;;;;;;;6.38;2.75;;;18.80;56.30;;;;;;5093003;28;20058;-73
2022/05/15 02:02:23;;;;;;;5.88;3.00;;;18.00;55.90;;;;;;5093138;28;20060;-73
2022/05/15 02:04:50;;;;;;;5.32;2.83;;;18.80;57.10;;;;;;5094278;28;20052;-73
2022/05/15 02:07:17;;;;;;;5.47;2.70;;;18.10;56.00;;;;;;5092968;28;20052;-73
2022/05/15 02:09:44;;;;;;;6.20;2.97;;;18.40;58.10;;;;;;5093138;28;20064;-73
2022/05/15 02:12:11;;;;;;;5.10;2.97;;;18.90;57.00;;;;;;5092978;28;20059;-74
2022/05/15 02:14:39;;;;;;;5.72;2.80;;;19.40;57.80;;;;;;5092819;28;20055;-74
2022/05/15 02:17:06;;;;;;;7.57;3.40;;;18.50;57.30;;;;;;5092863;28;20062;-74
2022/05/15 02:19:33;;;;;;;5.57;2.55;;;18.70;52.10;;;;;;5092631;28;20135;-74
2022/05/15 02:21:59;;;;;;;7.18;3.13;;;18.70;52.10;;;;;;5092850;28;20066;-74
2022/05/15 02:24:26;;;;;;;4.75;2.50;;;18.70;57.70;;;;;;5092744;28;20058;-74
2022/05/15 02:26:53;;;;;;;6.53;2.70;;;18.60;57.10;;;;;;5092834;28;20056;-74
2022/05/15 02:29:20;;;;;;;6.97;2.72;;;18.60;56.60;;;;;;5092175;28;20051;-74
2022/05/15 02:31:48;;;;;;;5.25;2.72;;;19.30;57.00;;;;;;5091486;28;20552;-74
2022/05/15 02:34:14;;;;;;;5.57;2.80;;;18.70;57.30;;;;;;5092586;28;20151;-74
2022/05/15 02:36:41;;;;;;;6.95;3.60;;;18.70;56.80;;;;;;5092490;28;20703;-74
2022/05/15 02:39:08;;;;;;;6.22;3.00;;;18.60;52.10;;;;;;5092089;28;20090;-74
2022/05/15 02:41:34;;;;;;;5.47;2.80;;;18.70;56.50;;;;;;5092457;28;20389;-74
2022/05/15 02:44:01;;;;;;;5.38;2.90;;;17.80;56.10;;;;;;5092456;28;20654;-74
2022/05/15 02:46:28;;;;;;;4.50;2.60;;;18.60;52.20;;;;;;5092046;28;20051;-74
2022/05/15 02:51:40;;;;;;;5.78;3.30;;;18.30;56.40;;;;;;5126336;27;20056;-74
2022/05/15 02:54:07;;;;;;;4.80;2.83;;;19.20;57.00;;;;;;5074374;28;20051;-74
2022/05/15 02:56:35;;;;;;;6.43;3.10;;;18.80;56.80;;;;;;5072947;28;20055;-74
2022/05/15 02:59:01;;;;;;;4.95;2.70;;;19.10;56.70;;;;;;5071944;28;20053;-74
2022/05/15 03:01:28;;;;;;;5.75;2.70;;;18.50;58.10;;;;;;5082645;28;20130;-74
2022/05/15 03:03:56;;;;;;;4.95;2.50;;;18.60;52.10;;;;;;5076845;28;20059;-74
2022/05/15 03:06:23;;;;;;;6.28;3.03;;;17.50;56.10;;;;;;5071690;28;20075;-74
2022/05/15 03:08:50;;;;;;;5.03;2.58;;;18.20;56.50;;;;;;5071399;28;20132;-74
2022/05/15 03:11:18;;;;;;;5.55;2.90;;;18.50;56.80;;;;;;5071538;28;20136;-74
2022/05/15 03:13:44;;;;;;;6.25;2.90;;;18.60;56.60;;;;;;5071616;28;20056;-74
2022/05/15 03:16:11;;;;;;;5.85;3.20;;;18.50;52.10;;;;;;5071577;28;20477;-74
2022/05/15 03:18:39;;;;;;;5.80;2.83;;;18.50;52.70;;;;;;5071311;28;20131;-74
2022/05/15 03:21:07;;;;;;;5.65;2.75;;;18.20;56.50;;;;;;5071154;28;20478;-74
2022/05/15 03:23:33;;;;;;;6.15;2.78;;;18.70;56.80;;;;;;5071388;28;20053;-74
2022/05/15 03:26:00;;;;;;;5.47;2.63;;;18.60;56.40;;;;;;5071470;28;20055;-74
2022/05/15 03:28:27;;;;;;;6.13;2.90;;;18.40;56.50;;;;;;5071028;28;20048;-74
2022/05/15 03:30:53;;;;;;;3.88;2.55;;;18.40;56.60;;;;;;5106186;27;20049;-74
2022/05/15 03:33:20;;;;;;;6.18;2.80;;;18.50;56.70;;;;;;5071221;28;20432;-74
2022/05/15 03:35:47;;;;;;;5.90;2.88;;;18.50;57.10;;;;;;5071164;28;20060;-74
2022/05/15 03:38:15;;;;;;;4.10;2.78;;;18.20;56.40;;;;;;5070660;28;20436;-74
2022/05/15 03:40:43;;;;;;;7.05;3.08;;;19.10;56.90;;;;;;5070808;28;20048;-74
2022/05/15 03:43:10;;;;;;;5.10;2.67;;;18.40;52.10;;;;;;5070840;28;20058;-74
2022/05/15 03:45:36;;;;;;;5.30;3.35;;;18.30;58.00;;;;;;5070995;28;20052;-74
2022/05/15 03:48:04;;;;;;;5.40;2.70;;;18.40;52.20;;;;;;5070898;28;20052;-74
2022/05/15 03:50:31;;;;;;;8.10;2.92;;;19.00;57.00;;;;;;5070809;28;20063;-74
2022/05/15 03:52:58;;;;;;;5.55;2.40;;;17.50;56.00;;;;;;5071044;28;20477;-74
2022/05/15 03:55:26;;;;;;;5.28;2.70;;;18.50;56.90;;;;;;5071011;28;20049;-74
2022/05/15 03:57:55;;;;;;;4.22;2.38;;;18.20;57.30;;;;;;5070784;28;20159;-74
2022/05/15 04:00:22;;;;;;;4.57;2.60;;;17.80;56.50;;;;;;5070713;28;20501;-74
2022/05/15 04:02:49;;;;;;;5.15;2.60;;;18.30;56.80;;;;;;5073006;28;20048;-74
2022/05/15 04:05:15;;;;;;;4.72;2.90;;;18.30;52.20;;;;;;5070774;28;20052;-74
2022/05/15 04:07:43;;;;;;;5.93;3.10;;;18.40;56.60;;;;;;5070328;28;20052;-74
2022/05/15 04:10:10;;;;;;;4.40;2.55;;;18.20;56.60;;;;;;5070598;28;20052;-74
2022/05/15 04:12:38;;;;;;;5.20;2.88;;;17.50;56.40;;;;;;5070682;28;20056;-74
2022/05/15 04:15:06;;;;;;;4.72;2.30;;;17.50;56.40;;;;;;5070527;28;20055;-74
2022/05/15 04:17:32;;;;;;;4.72;2.63;;;18.30;56.70;;;;;;5070425;28;20052;-74
2022/05/15 04:20:02;;;;;;;5.35;2.40;;;18.40;56.90;;;;;;5070420;28;20048;-74
2022/05/15 04:22:29;;;;;;;3.75;2.35;;;18.20;56.50;;;;;;5070570;28;20461;-74
2022/05/15 04:24:55;;;;;;;5.38;2.67;;;18.40;56.90;;;;;;5070575;28;20135;-74
2022/05/15 04:27:24;;;;;;;4.65;2.45;;;18.00;56.90;;;;;;5104501;28;20153;-74
2022/05/15 04:29:52;;;;;;;5.25;2.45;;;18.40;57.10;;;;;;5070064;28;20131;-74
2022/05/15 04:32:19;;;;;;;5.40;3.00;;;18.30;52.10;;;;;;5070237;28;20128;-74
2022/05/15 04:34:46;;;;;;;5.20;2.50;;;18.30;56.90;;;;;;5075594;28;20062;-74
2022/05/15 04:37:12;;;;;;;4.82;2.30;;;18.40;56.70;;;;;;5090383;28;20488;-74
2022/05/15 04:39:39;;;;;;;5.55;2.72;;;19.00;57.10;;;;;;5090273;28;20054;-74
2022/05/15 04:42:07;;;;;;;3.95;2.38;;;18.50;57.50;;;;;;5090657;28;20056;-74
2022/05/15 04:44:34;;;;;;;4.35;2.63;;;18.40;56.70;;;;;;5124774;28;20558;-74
2022/05/15 04:47:02;;;;;;;4.70;2.70;;;18.30;56.80;;;;;;5090274;28;20143;-74
2022/05/15 04:49:28;;;;;;;4.00;2.42;;;18.40;52.10;;;;;;5090114;28;20054;-74
2022/05/15 04:51:55;;;;;;;4.97;2.72;;;17.60;56.60;;;;;;5080888;28;20066;-74
2022/05/15 04:54:22;;;;;;;4.72;2.50;;;17.80;56.60;;;;;;5070364;28;20131;-74
2022/05/15 04:56:48;;;;;;;4.90;2.65;;;18.40;56.30;;;;;;5073605;28;20052;-74
2022/05/15 04:59:15;;;;;;;4.18;2.35;;;18.30;52.00;;;;;;5074164;28;20063;-74
2022/05/15 05:01:42;;;;;;;4.22;2.80;;;18.30;56.50;;;;;;5073960;28;20056;-74
2022/05/15 05:04:11;;;;;;;4.97;2.45;;;18.50;57.10;;;;;;5074002;28;20452;-73
2022/05/15 05:06:37;;;;;;;4.65;2.33;;;18.30;52.00;;;;;;5073776;28;20078;-73
2022/05/15 05:09:04;;;;;;;5.78;2.78;;;18.70;56.80;;;;;;5074850;28;20097;-73
2022/05/15 05:11:31;;;;;;;4.88;2.95;;;18.20;56.50;;;;;;5073811;28;20135;-74
2022/05/15 05:13:57;;;;;;;5.60;2.60;;;18.50;56.80;;;;;;5073760;28;20078;-74
2022/05/15 05:16:24;;;;;;;4.93;2.75;;;18.20;56.70;;;;;;5073869;28;20125;-73
2022/05/15 05:18:51;;;;;;;4.35;2.70;;;19.10;57.30;;;;;;5073597;28;20052;-73
2022/05/15 05:21:19;;;;;;;4.28;2.60;;;18.50;56.80;;;;;;5073538;28;20061;-73
2022/05/15 05:23:46;;;;;;;5.10;2.40;;;18.30;52.10;;;;;;5074575;28;20135;-74
2022/05/15 05:26:12;;;;;;;6.35;2.40;;;19.10;57.00;;;;;;5073409;28;20396;-74
2022/05/15 05:28:39;;;;;;;5.43;2.80;;;18.80;57.20;;;;;;5073242;28;20059;-73
2022/05/15 05:31:06;;;;;;;5.10;2.35;;;18.30;52.10;;;;;;5073192;28;20052;-73
2022/05/15 05:33:33;;;;;;;5.50;2.97;;;18.90;57.00;;;;;;5073465;28;20102;-73
2022/05/15 05:35:59;;;;;;;5.47;2.53;;;18.60;56.80;;;;;;5073477;28;20359;-73
2022/05/15 05:38:27;;;;;;;5.75;2.70;;;18.30;52.10;;;;;;5073374;28;20490;-73
2022/05/15 05:40:54;;;;;;;3.95;2.25;;;17.70;56.20;;;;;;5080167;28;20059;-73
2022/05/15 05:43:21;;;;;;;3.20;2.20;;;18.20;56.80;;;;;;5073256;28;20048;-73
2022/05/15 05:45:47;;;;;;;4.13;2.55;;;18.30;57.90;;;;;;5086759;28;20048;-73
2022/05/15 05:48:14;;;;;;;7.28;2.60;;;18.40;52.10;;;;;;5092895;28;20056;-73
2022/05/15 05:50:41;;;;;;;4.35;2.40;;;18.50;56.70;;;;;;5092988;28;20043;-73
2022/05/15 05:53:07;;;;;;;6.95;3.10;;;17.60;56.00;;;;;;5093088;28;20059;-73
2022/05/15 05:55:35;;;;;;;7.78;2.78;;;18.60;56.20;;;;;;5091591;28;20059;-73
2022/05/15 05:58:02;;;;;;;4.57;2.50;;;18.60;56.20;;;;;;5092777;28;20507;-73
2022/05/15 06:00:30;;;;;;;4.53;2.50;;;18.70;56.40;;;;;;5088550;28;20053;-73
2022/05/15 06:05:38;;;;;;;5.40;2.90;;;18.90;56.10;;;;;;5071665;28;20490;-73
2022/05/15 06:08:04;;;;;;;6.13;2.55;;;19.20;56.00;;;;;;5075768;28;20079;-73
2022/05/15 06:10:31;;;;;;;3.17;2.03;;;19.10;55.70;;;;;;5092144;28;20044;-72
2022/05/15 06:12:59;;;;;;;4.05;2.53;;;20.10;55.80;;;;;;5091369;28;20553;-73
2022/05/15 06:15:26;;;;;;;4.03;2.70;;;20.10;55.50;;;;;;5092031;28;20062;-73
2022/05/15 06:17:53;;;;;;;4.85;2.30;;;19.40;51.40;;;;;;5092568;28;20139;-73
2022/05/15 06:20:19;;;;;;;3.60;2.17;;;20.20;55.30;;;;;;5092237;28;20481;-73
2022/05/15 06:22:46;;;;;;;3.80;2.30;;;19.50;54.60;;;;;;5093050;28;20048;-73
2022/05/15 06:25:13;;;;;;;4.10;2.22;;;19.90;54.90;;;;;;5089775;28;20078;-73
2022/05/15 06:27:40;;;;;;;5.82;2.22;;;20.10;54.40;;;;;;5091515;28;20059;-73
2022/05/15 06:30:09;;;;;;;3.97;2.20;;;19.90;56.10;;;;;;5091600;28;20056;-73
2022/05/15 06:32:36;;;;;;;5.63;2.67;;;20.30;54.60;;;;;;5092592;28;20427;-73
2022/05/15 06:35:03;;;;;;;4.57;2.40;;;20.40;54.40;;;;;;5092593;28;20058;-73
2022/05/15 06:37:30;;;;;;;5.25;2.42;;;20.20;54.40;;;;;;5126385;27;20059;-73
2022/05/15 06:39:57;;;;;;;7.60;2.53;;;20.40;54.70;;;;;;5092347;28;20051;-73
2022/05/15 06:42:25;;;;;;;5.15;2.40;;;20.40;49.50;;;;;;5084988;28;20400;-73
2022/05/15 06:44:52;;;;;;;4.25;2.33;;;20.50;49.50;;;;;;5072422;28;20053;-73
2022/05/15 06:47:20;;;;;;;5.28;2.35;;;20.10;53.30;;;;;;5071980;28;20062;-73
2022/05/15 06:49:48;;;;;;;4.20;2.20;;;20.80;54.40;;;;;;5071861;28;20044;-73
2022/05/15 06:52:15;;;;;;;4.53;2.25;;;20.00;54.00;;;;;;5072247;28;20447;-73
2022/05/15 06:54:42;;;;;;;5.88;2.33;;;21.20;52.80;;;;;;5073018;28;20048;-73
2022/05/15 06:59:52;;;;;;;5.80;2.20;;;20.90;48.80;;;;;;5125986;27;20055;-73
2022/05/15 07:02:20;;;;;;;4.95;2.45;;;21.10;54.10;;;;;;5091905;28;20412;-73
2022/05/15 07:04:47;;;;;;;4.80;2.10;;;21.10;48.80;;;;;;5092017;28;20064;-73
2022/05/15 07:07:14;;;;;;;4.53;2.28;;;21.10;48.70;;;;;;5091824;28;20394;-73
2022/05/15 07:09:41;;;;;;;5.93;2.00;;;21.10;52.70;;;;;;5087179;28;20050;-74
2022/05/15 07:12:08;;;;;;;7.85;2.20;;;21.50;54.20;;;;;;5091445;28;20496;-74
2022/05/15 07:14:35;;;;;;;6.85;2.50;;;21.30;53.40;;;;;;5091754;28;20461;-74
2022/05/15 07:17:02;;;;;;;7.90;2.60;;;20.70;52.10;;;;;;5091758;28;20052;-73
2022/05/15 07:19:30;;;;;;;7.43;2.65;;;21.70;52.60;;;;;;5090800;28;20048;-73
2022/05/15 07:21:57;;;;;;;9.65;3.05;;;21.50;48.60;;;;;;5091601;28;20056;-74
2022/05/15 07:24:23;;;;;;;8.63;2.58;;;21.70;53.70;;;;;;5092798;28;20392;-74
2022/05/15 07:26:50;;;;;;;10.00;2.70;;;22.20;55.20;;;;;;5095446;28;20060;-74
2022/05/15 07:29:17;;;;;;;9.25;3.45;;;21.40;52.20;;;;;;5091501;28;20055;-74
2022/05/15 07:31:44;;;;;;;9.25;3.10;;;21.70;53.40;;;;;;5088262;28;20055;-74
2022/05/15 07:34:11;;;;;;;10.40;3.25;;;21.70;48.60;;;;;;5071370;28;20478;-74
2022/05/15 07:36:39;;;;;;;9.05;2.97;;;21.80;48.60;;;;;;5071236;28;20056;-74
2022/05/15 07:39:05;;;;;;;8.23;2.70;;;21.80;48.50;;;;;;5071917;28;20049;-74
2022/05/15 07:41:32;;;;;;;8.68;3.05;;;21.80;52.20;;;;;;5072223;28;20131;-74
2022/05/15 07:43:59;;;;;;;8.20;2.58;;;21.90;48.50;;;;;;5070823;28;20049;-74
2022/05/15 07:46:25;;;;;;;9.07;3.00;;;21.90;48.40;;;;;;5089659;28;20062;-74
2022/05/15 07:48:54;;;;;;;12.45;2.88;;;22.90;54.30;;;;;;5090587;28;20059;-73
2022/05/15 07:51:20;;;;;;;6.50;2.70;;;21.90;54.00;;;;;;5091091;28;20052;-73
2022/05/15 07:53:48;;;;;;;9.23;3.03;;;21.90;48.20;;;;;;5090757;28;20078;-73
2022/05/15 07:56:15;;;;;;;7.47;2.83;;;22.10;48.30;;;;;;5125039;27;20060;-73
2022/05/15 07:58:43;;;;;;;5.03;2.65;;;22.10;48.30;;;;;;5087035;28;20058;-74
2022/05/15 08:01:09;;;;;;;6.93;2.70;;;22.20;48.30;;;;;;5088300;28;20048;-74
2022/05/15 08:03:42;;;;;;;6.90;2.60;;;22.20;51.90;;;;;;5091275;28;20054;-76
2022/05/15 08:08:55;;;;;;;10.00;2.83;;;22.60;52.10;;;;;;5130248;27;20051;-73
2022/05/15 08:11:26;;;;;;;13.20;4.07;;;22.30;48.20;;;;;;5093709;28;20050;-74
2022/05/15 08:13:53;;;;;;;20.00;3.90;;;22.30;48.20;;;;;;5086972;28;20052;-74
2022/05/15 08:16:19;;;;;;;10.82;3.40;;;22.30;54.50;;;;;;5073806;28;20052;-74
2022/05/15 08:24:16;;;;;;;14.00;2.78;;;22.40;48.10;;;;;;5106867;28;20044;-75
2022/05/15 08:26:44;;;;;;;7.63;3.25;;;22.40;48.10;;;;;;5072963;28;20198;-74
2022/05/15 08:29:11;;;;;;;10.10;3.10;;;22.40;48.00;;;;;;5072158;28;20049;-74
2022/05/15 08:31:39;;;;;;;11.50;3.75;;;22.40;53.00;;;;;;5074520;28;20056;-75
2022/05/15 08:34:05;;;;;;;13.05;3.20;;;22.60;52.30;;;;;;5075327;28;20048;-73
2022/05/15 08:36:32;;;;;;;9.65;2.80;;;22.60;51.60;;;;;;5094738;28;20052;-72
2022/05/15 08:38:59;;;;;;;8.88;3.33;;;22.60;54.00;;;;;;5093295;28;20044;-73
2022/05/15 08:41:36;;;;;;;9.35;3.20;;;22.60;52.60;;;;;;5092780;28;20048;-73
2022/05/15 08:44:06;;;;;;;10.75;2.92;;;22.40;51.80;;;;;;5093725;28;20087;-73
2022/05/15 08:46:35;;;;;;;9.88;3.00;;;22.90;52.00;;;;;;5091978;28;20062;-73
2022/05/15 08:49:06;;;;;;;8.88;2.90;;;22.80;52.90;;;;;;5092715;28;20056;-73
2022/05/15 08:51:33;;;;;;;9.60;2.65;;;22.60;47.90;;;;;;5093219;28;20110;-73
2022/05/15 08:54:00;;;;;;;10.13;2.88;;;22.60;47.80;;;;;;5094162;28;20052;-73
2022/05/15 08:56:28;;;;;;;9.55;3.35;;;22.30;51.90;;;;;;5094572;28;20527;-73
2022/05/15 08:58:57;;;;;;;7.72;2.53;;;22.60;47.80;;;;;;5094494;28;20131;-73
2022/05/15 09:01:26;;;;;;;6.93;2.65;;;22.60;47.80;;;;;;5091999;28;20062;-73
2022/05/15 09:03:53;;;;;;;6.07;2.63;;;22.60;47.80;;;;;;5074147;28;20102;-73
2022/05/15 09:06:32;;;;;;;7.18;2.90;;;22.60;51.60;;;;;;5073791;28;20127;-73
2022/05/15 09:09:04;;;;;;;5.78;2.35;;;22.60;53.20;;;;;;5074074;28;20056;-73
2022/05/15 09:11:42;;;;;;;6.38;2.75;;;22.50;52.30;;;;;;5073301;28;20485;-73
2022/05/15 09:14:26;;;;;;;6.47;2.72;;;23.10;52.50;;;;;;5074060;28;20056;-73
2022/05/15 09:16:54;;;;;;;6.32;2.40;;;22.60;47.70;;;;;;5057033;28;20059;-73
2022/05/15 09:19:21;;;;;;;8.25;2.80;;;22.50;53.40;;;;;;5089486;28;20055;-73
2022/05/15 09:21:48;;;;;;;5.50;2.30;;;22.60;47.70;;;;;;5093743;28;20471;-73
2022/05/15 09:24:23;;;;;;;7.15;2.40;;;22.70;52.10;;;;;;5110749;28;20135;-73
2022/05/15 09:26:51;;;;;;;;;;;22.60;47.70;;;;;;5094063;28;20056;-73
2022/05/15 09:29:18;;;;;;;7.20;2.20;;;22.60;47.90;;;;;;5093251;28;20576;-73
2022/05/15 09:31:45;;;;;;;6.57;2.85;;;22.40;53.00;;;;;;5093196;28;20515;-73
2022/05/15 09:34:20;;;;;;;9.18;3.35;;;22.70;52.00;;;;;;5091815;28;20129;-73
2022/05/15 09:36:47;;;;;;;6.38;2.50;;;22.60;47.70;;;;;;5128030;27;20047;-73
2022/05/15 09:39:24;;;;;;;6.97;2.55;;;22.60;53.00;;;;;;5093628;28;20119;-73
2022/05/15 09:44:51;;;;;;;6.07;2.38;;;22.60;47.70;;;;;;5059247;28;20059;-73
2022/05/15 09:47:22;;;;;;;6.05;2.78;;;22.60;47.70;;;;;;5085754;28;20052;-73
2022/05/15 09:49:49;;;;;;;5.90;2.58;;;22.70;52.00;;;;;;5072525;28;20478;-73
2022/05/15 09:52:19;;;;;;;5.78;2.60;;;22.60;47.70;;;;;;5074325;28;20048;-73
2022/05/15 09:54:47;;;;;;;5.07;2.10;;;22.60;52.30;;;;;;5073121;28;20052;-73
2022/05/15 09:57:17;;;;;;;5.78;2.17;;;23.60;52.80;;;;;;5073180;28;20064;-73
2022/05/15 09:59:45;;;;;;;5.97;2.63;;;23.40;53.00;;;;;;5072733;28;20145;-73
2022/05/15 10:02:17;;;;;;;4.70;2.47;;;22.40;51.90;;;;;;5089695;28;20048;-73
2022/05/15 10:04:48;;;;;;;4.60;2.15;;;22.60;47.80;;;;;;5093162;28;20052;-72
2022/05/15 10:07:30;;;;;;;8.15;2.97;;;22.60;47.80;;;;;;5093062;28;20060;-73
2022/05/15 10:09:56;;;;;;;7.25;2.42;;;21.40;52.90;;;;;;5093747;28;20109;-72
2022/05/15 10:12:27;;;;;;;4.55;2.10;;;22.60;47.90;;;;;;5127057;27;20058;-73
2022/05/15 10:14:55;;;;;;;5.55;2.10;;;22.50;52.10;;;;;;5093158;28;20060;-72
2022/05/15 10:17:22;;;;;;;7.45;2.30;;;22.50;47.90;;;;;;5090949;28;20048;-73
2022/05/15 10:19:50;;;;;;;4.63;2.17;;;22.50;47.90;;;;;;5092806;28;20082;-72
2022/05/15 10:22:35;;;;;;;4.22;2.00;;;22.50;47.90;;;;;;5092909;28;20403;-73
2022/05/15 10:25:10;;;;;;;4.88;1.95;;;22.50;47.90;;;;;;5092790;28;20127;-73
2022/05/15 10:27:38;;;;;;;3.40;1.90;;;22.60;51.20;;;;;;5126846;27;20052;-73
2022/05/15 10:30:09;;;;;;;5.05;2.20;;;22.80;51.60;;;;;;5092584;28;20131;-73
2022/05/15 10:32:38;;;;;;;4.75;1.80;;;22.50;47.90;;;;;;5090338;28;20052;-73
2022/05/15 10:35:06;;;;;;;4.25;2.15;;;22.50;47.90;;;;;;5126870;27;20055;-73
2022/05/15 10:37:43;;;;;;;5.30;2.28;;;22.20;52.30;;;;;;5092513;28;20131;-73
2022/05/15 10:40:17;;;;;;;5.50;2.08;;;22.50;48.00;;;;;;5092363;28;20400;-73
2022/05/15 10:42:51;;;;;;;5.32;2.30;;;22.50;48.00;;;;;;5092080;28;20052;-73
2022/05/15 10:45:21;;;;;;;5.05;2.40;;;22.50;48.00;;;;;;5092462;28;20449;-73
2022/05/15 10:47:54;;;;;;;4.82;2.08;;;22.60;51.60;;;;;;5092241;28;20058;-73
2022/05/15 10:50:24;;;;;;;4.80;2.35;;;23.40;52.90;;;;;;5074748;28;20053;-73
2022/05/15 10:57:21;;;;;;;6.35;2.65;;;23.70;53.40;;;;;;5071305;28;20063;-73
2022/05/15 10:58:49;;;;;;;6.20;2.60;;;22.40;48.00;;;;;;5105488;28;20170;-73
2022/05/15 11:01:18;;;;;;;4.07;2.00;;;22.40;48.10;;;;;;5072776;28;20059;-73
2022/05/15 11:03:52;;;;;;;4.93;2.33;;;22.40;48.10;;;;;;5071878;28;20490;-73
2022/05/15 11:06:55;;;;;;;3.95;2.20;;;22.40;48.10;;;;;;5072919;28;20053;-73
2022/05/15 11:09:25;;;;;;;4.55;2.30;;;22.30;53.10;;;;;;5071535;28;20057;-73
2022/05/15 11:11:57;;;;;;;4.00;2.05;;;22.30;48.10;;;;;;5071470;28;20051;-73
2022/05/15 11:14:28;;;;;;;3.88;2.00;;;22.40;54.00;;;;;;5071781;28;20061;-72
2022/05/15 11:17:02;;;;;;;4.55;2.53;;;22.30;48.10;;;;;;5071467;28;20052;-73
2022/05/15 11:19:34;;;;;;;4.75;2.10;;;22.30;48.10;;;;;;5071447;28;20063;-74
2022/05/15 11:22:03;;;;;;;5.18;1.67;;;22.30;48.10;;;;;;5072650;28;20055;-74
2022/05/15 11:24:39;;;;;;;5.47;2.35;;;22.70;52.20;;;;;;5071272;28;20440;-73
2022/05/15 11:27:09;;;;;;;4.97;2.10;;;23.10;52.80;;;;;;5071350;28;20052;-73
2022/05/15 11:29:41;;;;;;;4.15;1.90;;;22.20;53.40;;;;;;5071261;28;20063;-74
2022/05/15 11:32:28;;;;;;;2.83;1.75;;;22.30;52.00;;;;;;5071280;28;20135;-74
2022/05/15 11:35:04;;;;;;;2.95;1.73;;;22.30;48.20;;;;;;5071779;28;20059;-74
2022/05/15 11:37:44;;;;;;;4.25;1.90;;;22.30;53.50;;;;;;5108908;28;20055;-74
2022/05/15 11:40:12;;;;;;;4.40;1.98;;;22.30;48.30;;;;;;5071511;28;20056;-74
2022/05/15 11:42:40;;;;;;;3.17;1.90;;;22.20;51.80;;;;;;5071184;28;20060;-74
2022/05/15 11:45:38;;;;;;;3.40;2.00;;;22.30;48.30;;;;;;5071486;28;20110;-74
2022/05/15 11:48:20;;;;;;;3.50;2.00;;;22.30;48.30;;;;;;5071142;28;20061;-73
2022/05/15 11:50:54;;;;;;;4.00;2.10;;;23.20;53.30;;;;;;5105217;28;20056;-74
2022/05/15 11:53:26;;;;;;;3.60;1.90;;;22.30;48.40;;;;;;5073405;28;20166;-74
2022/05/15 11:55:53;;;;;;;3.85;1.80;;;22.20;52.10;;;;;;5091434;28;20408;-74
2022/05/15 11:58:37;;;;;;;4.15;1.90;;;22.30;52.50;;;;;;5091339;28;20117;-73
2022/05/15 12:01:09;;;;;;;3.63;1.90;;;22.30;48.40;;;;;;5091423;28;20471;-74
2022/05/15 12:03:46;;;;;;;3.30;1.80;;;22.40;52.10;;;;;;5091210;28;20056;-74
2022/05/15 12:06:13;;;;;;;3.10;1.80;;;22.30;48.40;;;;;;5091536;28;20127;-74
2022/05/15 12:08:40;;;;;;;4.93;1.73;;;22.30;48.40;;;;;;5091106;28;20470;-73
2022/05/15 12:11:28;;;;;;;5.15;2.00;;;23.00;53.00;;;;;;5088430;28;20052;-73
2022/05/15 12:13:55;;;;;;;3.42;1.80;;;22.30;48.40;;;;;;5091177;28;20056;-73
2022/05/15 12:16:28;;;;;;;3.90;1.85;;;22.20;48.40;;;;;;5090902;28;20060;-73
2022/05/15 12:19:04;;;;;;;4.80;1.95;;;22.30;48.50;;;;;;5125089;27;20134;-73
2022/05/15 12:21:36;;;;;;;2.47;1.52;;;22.20;48.40;;;;;;5090415;28;20131;-73
2022/05/15 12:26:51;;;;;;;3.35;1.85;;;22.20;48.50;;;;;;5082472;28;20044;-73
2022/05/15 12:29:28;;;;;;;4.88;2.05;;;22.30;52.50;;;;;;5085441;28;20427;-74
2022/05/15 12:31:56;;;;;;;3.53;1.80;;;22.20;48.60;;;;;;5090427;28;20090;-73
2022/05/15 12:34:25;;;;;;;4.35;1.77;;;22.20;48.50;;;;;;5090881;28;20059;-73
2022/05/15 12:36:53;;;;;;;3.83;1.80;;;21.20;52.70;;;;;;5090725;28;20078;-73
2022/05/15 12:39:22;;;;;;;3.72;1.70;;;22.30;52.20;;;;;;5090554;28;20052;-73
2022/05/15 12:41:49;;;;;;;3.33;1.85;;;22.20;48.60;;;;;;5089354;28;20056;-73
2022/05/15 12:44:18;;;;;;;3.25;1.73;;;23.30;54.10;;;;;;5090618;28;20059;-73
2022/05/15 12:46:54;;;;;;;4.00;1.80;;;22.30;54.50;;;;;;5090401;28;20056;-73
2022/05/15 12:49:31;;;;;;;2.28;1.63;;;22.50;52.20;;;;;;5090515;28;20063;-73
2022/05/15 12:52:09;;;;;;;3.35;1.67;;;21.40;52.40;;;;;;5090297;28;20478;-73
2022/05/15 12:54:35;;;;;;;4.82;1.70;;;22.90;52.70;;;;;;5090938;28;20139;-74
2022/05/15 12:57:03;;;;;;;3.42;1.83;;;22.60;52.60;;;;;;5091106;28;20400;-74
2022/05/15 12:59:30;;;;;;;3.00;1.60;;;22.90;53.00;;;;;;5088995;28;20139;-74
2022/05/15 13:01:58;;;;;;;2.72;1.75;;;22.30;49.20;;;;;;5090782;28;20074;-73
2022/05/15 13:04:25;;;;;;;3.55;1.90;;;22.10;52.80;;;;;;5091108;28;20056;-74
2022/05/15 13:06:54;;;;;;;2.63;1.70;;;22.30;52.30;;;;;;5091095;28;20059;-75
2022/05/15 13:09:22;;;;;;;2.95;1.60;;;22.30;48.60;;;;;;5090155;28;20056;-73
2022/05/15 13:11:51;;;;;;;4.40;1.95;;;22.20;48.50;;;;;;5090049;28;20050;-73
2022/05/15 13:14:20;;;;;;;3.42;1.67;;;22.30;48.60;;;;;;5089099;28;20116;-73
2022/05/15 13:16:49;;;;;;;2.88;1.65;;;21.80;53.20;;;;;;5071973;28;20060;-73
2022/05/15 13:19:25;;;;;;;2.80;1.50;;;21.40;52.70;;;;;;5073483;28;20136;-73